sensor_id;sensor_type;location;lat;lon;timestamp;P1;durP1;ratioP1;P2;durP2;ratioP2
73909;SDS011;62245;48.070;7.874;2024-03-17T00:02:22;3.03;;;1.30;;
73909;SDS011;62245;48.070;7.874;2024-03-17T00:04:47;3.70;;;1.20;;
73909;SDS011;62245;48.070;7.874;2024-03-17T00:07:13;2.78;;;1.10;;
73909;SDS011;62245;48.070;7.874;2024-03-17T00:09:38;5.43;;;1.58;;
73909;SDS011;62245;48.070;7.874;2024-03-17T00:12:04;2.83;;;1.20;;
73909;SDS011;62245;48.070;7.874;2024-03-17T00:14:30;3.28;;;1.10;;
73909;SDS011;62245;48.070;7.874;2024-03-17T00:16:56;3.65;;;1.33;;
73909;SDS011;62245;48.070;7.874;2024-03-17T00:19:21;1.70;;;1.00;;
73909;SDS011;62245;48.070;7.874;2024-03-17T00:21:48;2.35;;;1.10;;
73909;SDS011;62245;48.070;7.874;2024-03-17T00:24:15;2.45;;;1.10;;
73909;SDS011;62245;48.070;7.874;2024-03-17T00:26:41;2.90;;;1.30;;
73909;SDS011;62245;48.070;7.874;2024-03-17T00:29:06;2.73;;;1.10;;
73909;SDS011;62245;48.070;7.874;2024-03-17T00:31:31;3.07;;;1.30;;
73909;SDS011;62245;48.070;7.874;2024-03-17T00:33:56;3.63;;;0.97;;
73909;SDS011;62245;48.070;7.874;2024-03-17T00:36:22;3.00;;;1.08;;
73909;SDS011;62245;48.070;7.874;2024-03-17T00:38:48;3.73;;;0.90;;
73909;SDS011;62245;48.070;7.874;2024-03-17T00:41:13;2.57;;;1.10;;
73909;SDS011;62245;48.070;7.874;2024-03-17T00:43:38;2.30;;;0.97;;
73909;SDS011;62245;48.070;7.874;2024-03-17T00:46:03;3.17;;;1.10;;
73909;SDS011;62245;48.070;7.874;2024-03-17T00:48:29;3.08;;;1.10;;
73909;SDS011;62245;48.070;7.874;2024-03-17T00:50:57;2.90;;;1.17;;
73909;SDS011;62245;48.070;7.874;2024-03-17T00:53:24;4.68;;;0.95;;
73909;SDS011;62245;48.070;7.874;2024-03-17T00:55:52;1.83;;;0.95;;
73909;SDS011;62245;48.070;7.874;2024-03-17T00:58:21;3.13;;;1.10;;
73909;SDS011;62245;48.070;7.874;2024-03-17T01:00:47;4.05;;;1.20;;
73909;SDS011;62245;48.070;7.874;2024-03-17T01:03:18;2.88;;;1.27;;
73909;SDS011;62245;48.070;7.874;2024-03-17T01:05:44;3.92;;;1.40;;
73909;SDS011;62245;48.070;7.874;2024-03-17T01:08:12;8.52;;;2.10;;
73909;SDS011;62245;48.070;7.874;2024-03-17T01:10:38;4.03;;;1.83;;
73909;SDS011;62245;48.070;7.874;2024-03-17T01:13:05;6.05;;;2.28;;
73909;SDS011;62245;48.070;7.874;2024-03-17T01:15:32;2.90;;;1.42;;
73909;SDS011;62245;48.070;7.874;2024-03-17T01:17:57;3.95;;;1.30;;
73909;SDS011;62245;48.070;7.874;2024-03-17T01:20:22;2.57;;;1.10;;
73909;SDS011;62245;48.070;7.874;2024-03-17T01:22:48;3.05;;;1.30;;
73909;SDS011;62245;48.070;7.874;2024-03-17T01:25:13;2.47;;;1.20;;
73909;SDS011;62245;48.070;7.874;2024-03-17T01:27:39;2.40;;;1.25;;
73909;SDS011;62245;48.070;7.874;2024-03-17T01:30:04;3.90;;;0.90;;
73909;SDS011;62245;48.070;7.874;2024-03-17T01:32:30;2.08;;;1.10;;
73909;SDS011;62245;48.070;7.874;2024-03-17T01:34:55;2.47;;;1.10;;
73909;SDS011;62245;48.070;7.874;2024-03-17T01:37:21;2.47;;;1.10;;
73909;SDS011;62245;48.070;7.874;2024-03-17T01:39:46;3.33;;;1.40;;
73909;SDS011;62245;48.070;7.874;2024-03-17T01:42:11;5.87;;;2.20;;
73909;SDS011;62245;48.070;7.874;2024-03-17T01:44:36;6.80;;;2.40;;
73909;SDS011;62245;48.070;7.874;2024-03-17T01:47:02;5.73;;;2.03;;
73909;SDS011;62245;48.070;7.874;2024-03-17T01:49:28;5.38;;;2.00;;
73909;SDS011;62245;48.070;7.874;2024-03-17T01:51:53;2.83;;;1.20;;
73909;SDS011;62245;48.070;7.874;2024-03-17T01:54:19;3.17;;;1.20;;
73909;SDS011;62245;48.070;7.874;2024-03-17T01:56:45;2.38;;;1.13;;
73909;SDS011;62245;48.070;7.874;2024-03-17T01:59:11;2.67;;;0.90;;
73909;SDS011;62245;48.070;7.874;2024-03-17T02:01:36;1.73;;;0.80;;
73909;SDS011;62245;48.070;7.874;2024-03-17T02:04:03;2.22;;;0.93;;
73909;SDS011;62245;48.070;7.874;2024-03-17T02:06:29;1.65;;;0.75;;
73909;SDS011;62245;48.070;7.874;2024-03-17T02:08:55;1.58;;;0.90;;
73909;SDS011;62245;48.070;7.874;2024-03-17T02:11:23;1.58;;;1.00;;
73909;SDS011;62245;48.070;7.874;2024-03-17T02:13:53;3.28;;;1.00;;
73909;SDS011;62245;48.070;7.874;2024-03-17T02:16:19;1.95;;;0.93;;
73909;SDS011;62245;48.070;7.874;2024-03-17T02:18:45;3.53;;;0.98;;
73909;SDS011;62245;48.070;7.874;2024-03-17T02:21:11;2.60;;;1.00;;
73909;SDS011;62245;48.070;7.874;2024-03-17T02:23:37;2.63;;;0.90;;
73909;SDS011;62245;48.070;7.874;2024-03-17T02:26:02;2.70;;;1.00;;
73909;SDS011;62245;48.070;7.874;2024-03-17T02:28:28;2.45;;;1.00;;
73909;SDS011;62245;48.070;7.874;2024-03-17T02:30:54;1.42;;;0.80;;
73909;SDS011;62245;48.070;7.874;2024-03-17T02:33:19;2.08;;;0.95;;
73909;SDS011;62245;48.070;7.874;2024-03-17T02:35:47;2.53;;;1.20;;
73909;SDS011;62245;48.070;7.874;2024-03-17T02:38:15;3.05;;;1.00;;
73909;SDS011;62245;48.070;7.874;2024-03-17T02:41:00;3.55;;;1.10;;
73909;SDS011;62245;48.070;7.874;2024-03-17T02:43:26;3.97;;;1.30;;
73909;SDS011;62245;48.070;7.874;2024-03-17T02:45:51;2.47;;;1.10;;
73909;SDS011;62245;48.070;7.874;2024-03-17T02:48:17;3.30;;;1.20;;
73909;SDS011;62245;48.070;7.874;2024-03-17T02:50:42;2.83;;;1.17;;
73909;SDS011;62245;48.070;7.874;2024-03-17T02:53:07;3.55;;;1.23;;
73909;SDS011;62245;48.070;7.874;2024-03-17T02:55:33;2.80;;;1.10;;
73909;SDS011;62245;48.070;7.874;2024-03-17T02:57:58;2.57;;;1.10;;
73909;SDS011;62245;48.070;7.874;2024-03-17T03:00:23;3.13;;;1.20;;
73909;SDS011;62245;48.070;7.874;2024-03-17T03:02:50;2.47;;;1.10;;
73909;SDS011;62245;48.070;7.874;2024-03-17T03:05:15;2.50;;;1.13;;
73909;SDS011;62245;48.070;7.874;2024-03-17T03:07:41;1.83;;;0.90;;
73909;SDS011;62245;48.070;7.874;2024-03-17T03:10:06;1.70;;;1.00;;
73909;SDS011;62245;48.070;7.874;2024-03-17T03:12:32;2.83;;;1.02;;
73909;SDS011;62245;48.070;7.874;2024-03-17T03:14:58;3.80;;;1.10;;
73909;SDS011;62245;48.070;7.874;2024-03-17T03:17:23;2.72;;;1.05;;
73909;SDS011;62245;48.070;7.874;2024-03-17T03:19:49;3.35;;;1.30;;
73909;SDS011;62245;48.070;7.874;2024-03-17T03:22:14;2.97;;;1.23;;
73909;SDS011;62245;48.070;7.874;2024-03-17T03:24:39;2.23;;;1.10;;
73909;SDS011;62245;48.070;7.874;2024-03-17T03:27:04;3.17;;;1.20;;
73909;SDS011;62245;48.070;7.874;2024-03-17T03:29:30;1.95;;;0.98;;
73909;SDS011;62245;48.070;7.874;2024-03-17T03:31:55;3.30;;;1.20;;
73909;SDS011;62245;48.070;7.874;2024-03-17T03:34:20;2.50;;;1.23;;
73909;SDS011;62245;48.070;7.874;2024-03-17T03:36:46;2.20;;;0.83;;
73909;SDS011;62245;48.070;7.874;2024-03-17T03:39:11;2.43;;;1.10;;
73909;SDS011;62245;48.070;7.874;2024-03-17T03:41:37;2.85;;;1.15;;
73909;SDS011;62245;48.070;7.874;2024-03-17T03:44:03;1.98;;;1.13;;
73909;SDS011;62245;48.070;7.874;2024-03-17T03:46:28;3.55;;;1.40;;
73909;SDS011;62245;48.070;7.874;2024-03-17T03:48:53;4.37;;;1.20;;
73909;SDS011;62245;48.070;7.874;2024-03-17T03:51:19;2.00;;;0.90;;
73909;SDS011;62245;48.070;7.874;2024-03-17T03:53:44;3.23;;;1.10;;
73909;SDS011;62245;48.070;7.874;2024-03-17T03:56:09;3.28;;;1.00;;
73909;SDS011;62245;48.070;7.874;2024-03-17T03:58:35;3.65;;;1.63;;
73909;SDS011;62245;48.070;7.874;2024-03-17T04:01:08;3.03;;;1.23;;
73909;SDS011;62245;48.070;7.874;2024-03-17T04:03:36;3.17;;;1.23;;
73909;SDS011;62245;48.070;7.874;2024-03-17T04:06:05;2.00;;;1.08;;
73909;SDS011;62245;48.070;7.874;2024-03-17T04:08:32;3.10;;;1.33;;
73909;SDS011;62245;48.070;7.874;2024-03-17T04:10:58;2.95;;;1.20;;
73909;SDS011;62245;48.070;7.874;2024-03-17T04:13:24;3.17;;;1.20;;
73909;SDS011;62245;48.070;7.874;2024-03-17T04:15:49;4.47;;;1.45;;
73909;SDS011;62245;48.070;7.874;2024-03-17T04:18:14;2.45;;;1.20;;
73909;SDS011;62245;48.070;7.874;2024-03-17T04:20:42;2.80;;;1.40;;
73909;SDS011;62245;48.070;7.874;2024-03-17T04:23:08;5.93;;;1.70;;
73909;SDS011;62245;48.070;7.874;2024-03-17T04:25:33;4.43;;;1.55;;
73909;SDS011;62245;48.070;7.874;2024-03-17T04:27:58;3.97;;;1.40;;
73909;SDS011;62245;48.070;7.874;2024-03-17T04:30:24;5.57;;;1.70;;
73909;SDS011;62245;48.070;7.874;2024-03-17T04:32:49;3.17;;;1.20;;
73909;SDS011;62245;48.070;7.874;2024-03-17T04:35:15;3.90;;;1.40;;
73909;SDS011;62245;48.070;7.874;2024-03-17T04:37:40;4.27;;;1.47;;
73909;SDS011;62245;48.070;7.874;2024-03-17T04:40:06;3.47;;;1.50;;
73909;SDS011;62245;48.070;7.874;2024-03-17T04:42:34;3.63;;;1.45;;
73909;SDS011;62245;48.070;7.874;2024-03-17T04:44:59;2.03;;;1.20;;
73909;SDS011;62245;48.070;7.874;2024-03-17T04:47:25;4.47;;;1.70;;
73909;SDS011;62245;48.070;7.874;2024-03-17T04:49:51;3.97;;;1.50;;
73909;SDS011;62245;48.070;7.874;2024-03-17T04:52:16;3.57;;;1.40;;
73909;SDS011;62245;48.070;7.874;2024-03-17T04:54:41;3.97;;;1.30;;
73909;SDS011;62245;48.070;7.874;2024-03-17T04:57:08;3.60;;;1.20;;
73909;SDS011;62245;48.070;7.874;2024-03-17T04:59:34;4.05;;;1.38;;
73909;SDS011;62245;48.070;7.874;2024-03-17T05:02:00;5.53;;;1.30;;
73909;SDS011;62245;48.070;7.874;2024-03-17T05:04:25;2.83;;;1.20;;
73909;SDS011;62245;48.070;7.874;2024-03-17T05:06:50;3.90;;;1.23;;
73909;SDS011;62245;48.070;7.874;2024-03-17T05:09:16;2.70;;;1.40;;
73909;SDS011;62245;48.070;7.874;2024-03-17T05:11:42;4.18;;;1.40;;
73909;SDS011;62245;48.070;7.874;2024-03-17T05:14:07;3.92;;;1.40;;
73909;SDS011;62245;48.070;7.874;2024-03-17T05:16:33;2.10;;;1.00;;
73909;SDS011;62245;48.070;7.874;2024-03-17T05:18:59;2.78;;;1.30;;
73909;SDS011;62245;48.070;7.874;2024-03-17T05:21:24;3.55;;;1.33;;
73909;SDS011;62245;48.070;7.874;2024-03-17T05:23:51;4.25;;;1.50;;
73909;SDS011;62245;48.070;7.874;2024-03-17T05:26:17;4.85;;;1.58;;
73909;SDS011;62245;48.070;7.874;2024-03-17T05:28:42;4.45;;;1.60;;
73909;SDS011;62245;48.070;7.874;2024-03-17T05:31:08;3.55;;;1.40;;
73909;SDS011;62245;48.070;7.874;2024-03-17T05:33:34;3.13;;;1.45;;
73909;SDS011;62245;48.070;7.874;2024-03-17T05:36:00;3.65;;;1.52;;
73909;SDS011;62245;48.070;7.874;2024-03-17T05:38:27;5.07;;;1.55;;
73909;SDS011;62245;48.070;7.874;2024-03-17T05:43:27;5.03;;;1.63;;
73909;SDS011;62245;48.070;7.874;2024-03-17T05:45:54;4.00;;;1.55;;
73909;SDS011;62245;48.070;7.874;2024-03-17T05:48:22;3.88;;;1.33;;
73909;SDS011;62245;48.070;7.874;2024-03-17T05:50:47;5.35;;;1.73;;
73909;SDS011;62245;48.070;7.874;2024-03-17T05:53:12;4.95;;;1.50;;
73909;SDS011;62245;48.070;7.874;2024-03-17T05:55:38;6.57;;;1.77;;
73909;SDS011;62245;48.070;7.874;2024-03-17T05:58:05;6.78;;;2.47;;
73909;SDS011;62245;48.070;7.874;2024-03-17T06:00:34;5.28;;;2.30;;
73909;SDS011;62245;48.070;7.874;2024-03-17T06:03:00;5.43;;;2.38;;
73909;SDS011;62245;48.070;7.874;2024-03-17T06:05:25;7.80;;;3.25;;
73909;SDS011;62245;48.070;7.874;2024-03-17T06:07:50;6.97;;;2.70;;
73909;SDS011;62245;48.070;7.874;2024-03-17T06:10:16;5.87;;;2.30;;
73909;SDS011;62245;48.070;7.874;2024-03-17T06:12:41;6.03;;;2.92;;
73909;SDS011;62245;48.070;7.874;2024-03-17T06:15:06;5.50;;;2.60;;
73909;SDS011;62245;48.070;7.874;2024-03-17T06:17:32;5.38;;;2.20;;
73909;SDS011;62245;48.070;7.874;2024-03-17T06:19:57;7.70;;;2.00;;
73909;SDS011;62245;48.070;7.874;2024-03-17T06:22:23;4.50;;;1.70;;
73909;SDS011;62245;48.070;7.874;2024-03-17T06:24:49;8.38;;;2.40;;
73909;SDS011;62245;48.070;7.874;2024-03-17T06:27:15;4.85;;;1.75;;
73909;SDS011;62245;48.070;7.874;2024-03-17T06:29:41;5.13;;;2.17;;
73909;SDS011;62245;48.070;7.874;2024-03-17T06:32:07;5.53;;;1.95;;
73909;SDS011;62245;48.070;7.874;2024-03-17T06:34:33;5.45;;;1.95;;
73909;SDS011;62245;48.070;7.874;2024-03-17T06:36:58;5.53;;;1.97;;
73909;SDS011;62245;48.070;7.874;2024-03-17T06:39:25;6.00;;;2.50;;
73909;SDS011;62245;48.070;7.874;2024-03-17T06:41:50;4.53;;;2.03;;
73909;SDS011;62245;48.070;7.874;2024-03-17T06:44:15;5.80;;;2.00;;
73909;SDS011;62245;48.070;7.874;2024-03-17T06:46:41;5.83;;;2.23;;
73909;SDS011;62245;48.070;7.874;2024-03-17T06:49:06;3.77;;;1.90;;
73909;SDS011;62245;48.070;7.874;2024-03-17T06:51:32;4.28;;;1.77;;
73909;SDS011;62245;48.070;7.874;2024-03-17T06:53:57;4.53;;;1.87;;
73909;SDS011;62245;48.070;7.874;2024-03-17T06:56:23;5.05;;;1.80;;
73909;SDS011;62245;48.070;7.874;2024-03-17T06:58:49;5.43;;;1.75;;
73909;SDS011;62245;48.070;7.874;2024-03-17T07:01:17;5.15;;;1.70;;
73909;SDS011;62245;48.070;7.874;2024-03-17T07:03:42;4.35;;;1.55;;
73909;SDS011;62245;48.070;7.874;2024-03-17T07:06:08;6.00;;;1.90;;
73909;SDS011;62245;48.070;7.874;2024-03-17T07:08:34;3.20;;;1.40;;
73909;SDS011;62245;48.070;7.874;2024-03-17T07:11:00;3.87;;;1.63;;
73909;SDS011;62245;48.070;7.874;2024-03-17T07:13:33;9.52;;;3.38;;
73909;SDS011;62245;48.070;7.874;2024-03-17T07:16:00;4.03;;;1.67;;
73909;SDS011;62245;48.070;7.874;2024-03-17T07:18:27;4.05;;;1.30;;
73909;SDS011;62245;48.070;7.874;2024-03-17T07:20:55;5.72;;;1.50;;
73909;SDS011;62245;48.070;7.874;2024-03-17T07:23:22;4.32;;;1.80;;
73909;SDS011;62245;48.070;7.874;2024-03-17T07:25:59;5.80;;;1.60;;
73909;SDS011;62245;48.070;7.874;2024-03-17T07:28:26;3.25;;;1.40;;
73909;SDS011;62245;48.070;7.874;2024-03-17T07:30:52;4.05;;;1.48;;
73909;SDS011;62245;48.070;7.874;2024-03-17T07:33:19;3.85;;;1.30;;
73909;SDS011;62245;48.070;7.874;2024-03-17T07:35:55;3.85;;;1.20;;
73909;SDS011;62245;48.070;7.874;2024-03-17T07:38:28;5.20;;;1.40;;
73909;SDS011;62245;48.070;7.874;2024-03-17T07:40:55;5.18;;;2.05;;
73909;SDS011;62245;48.070;7.874;2024-03-17T07:43:23;5.35;;;2.30;;
73909;SDS011;62245;48.070;7.874;2024-03-17T07:45:58;6.72;;;2.47;;
73909;SDS011;62245;48.070;7.874;2024-03-17T07:48:31;4.10;;;1.80;;
73909;SDS011;62245;48.070;7.874;2024-03-17T07:51:02;5.97;;;2.30;;
73909;SDS011;62245;48.070;7.874;2024-03-17T07:53:29;6.22;;;2.38;;
73909;SDS011;62245;48.070;7.874;2024-03-17T07:56:08;6.32;;;2.95;;
73909;SDS011;62245;48.070;7.874;2024-03-17T07:58:34;5.63;;;2.65;;
73909;SDS011;62245;48.070;7.874;2024-03-17T08:01:01;5.05;;;2.50;;
73909;SDS011;62245;48.070;7.874;2024-03-17T08:03:34;5.85;;;2.30;;
73909;SDS011;62245;48.070;7.874;2024-03-17T08:06:02;4.82;;;2.25;;
73909;SDS011;62245;48.070;7.874;2024-03-17T08:08:28;4.78;;;2.33;;
73909;SDS011;62245;48.070;7.874;2024-03-17T08:10:54;6.63;;;2.28;;
73909;SDS011;62245;48.070;7.874;2024-03-17T08:13:19;5.53;;;2.25;;
73909;SDS011;62245;48.070;7.874;2024-03-17T08:15:46;3.85;;;1.60;;
73909;SDS011;62245;48.070;7.874;2024-03-17T08:18:19;5.60;;;2.25;;
73909;SDS011;62245;48.070;7.874;2024-03-17T08:20:45;7.47;;;2.50;;
73909;SDS011;62245;48.070;7.874;2024-03-17T08:23:11;7.05;;;2.88;;
73909;SDS011;62245;48.070;7.874;2024-03-17T08:25:37;6.35;;;2.60;;
73909;SDS011;62245;48.070;7.874;2024-03-17T08:28:03;8.88;;;3.00;;
73909;SDS011;62245;48.070;7.874;2024-03-17T08:30:28;4.55;;;2.08;;
73909;SDS011;62245;48.070;7.874;2024-03-17T08:32:57;5.03;;;1.85;;
73909;SDS011;62245;48.070;7.874;2024-03-17T08:35:23;7.32;;;2.30;;
73909;SDS011;62245;48.070;7.874;2024-03-17T08:37:48;8.20;;;2.58;;
73909;SDS011;62245;48.070;7.874;2024-03-17T08:40:13;4.40;;;2.37;;
73909;SDS011;62245;48.070;7.874;2024-03-17T08:42:39;5.03;;;1.90;;
73909;SDS011;62245;48.070;7.874;2024-03-17T08:45:05;6.93;;;3.22;;
73909;SDS011;62245;48.070;7.874;2024-03-17T08:47:31;4.50;;;2.20;;
73909;SDS011;62245;48.070;7.874;2024-03-17T08:49:56;6.20;;;2.37;;
73909;SDS011;62245;48.070;7.874;2024-03-17T08:52:23;4.35;;;1.92;;
73909;SDS011;62245;48.070;7.874;2024-03-17T08:54:48;4.68;;;2.20;;
73909;SDS011;62245;48.070;7.874;2024-03-17T08:57:13;4.47;;;1.77;;
73909;SDS011;62245;48.070;7.874;2024-03-17T08:59:39;7.03;;;2.00;;
73909;SDS011;62245;48.070;7.874;2024-03-17T09:02:04;4.78;;;2.20;;
73909;SDS011;62245;48.070;7.874;2024-03-17T09:04:31;4.93;;;2.28;;
73909;SDS011;62245;48.070;7.874;2024-03-17T09:06:56;4.43;;;2.03;;
73909;SDS011;62245;48.070;7.874;2024-03-17T09:09:22;5.45;;;2.40;;
73909;SDS011;62245;48.070;7.874;2024-03-17T09:11:47;7.38;;;3.60;;
73909;SDS011;62245;48.070;7.874;2024-03-17T09:14:13;7.97;;;3.60;;
73909;SDS011;62245;48.070;7.874;2024-03-17T09:16:38;6.80;;;3.30;;
73909;SDS011;62245;48.070;7.874;2024-03-17T09:19:03;10.33;;;3.10;;
73909;SDS011;62245;48.070;7.874;2024-03-17T09:21:29;6.90;;;2.60;;
73909;SDS011;62245;48.070;7.874;2024-03-17T09:23:54;6.20;;;2.60;;
73909;SDS011;62245;48.070;7.874;2024-03-17T09:26:19;15.93;;;7.67;;
73909;SDS011;62245;48.070;7.874;2024-03-17T09:28:45;12.23;;;5.23;;
73909;SDS011;62245;48.070;7.874;2024-03-17T09:31:10;6.78;;;2.78;;
73909;SDS011;62245;48.070;7.874;2024-03-17T09:33:36;7.53;;;2.15;;
73909;SDS011;62245;48.070;7.874;2024-03-17T09:36:05;5.35;;;2.28;;
73909;SDS011;62245;48.070;7.874;2024-03-17T09:38:32;7.30;;;2.53;;
73909;SDS011;62245;48.070;7.874;2024-03-17T09:40:58;6.65;;;2.92;;
73909;SDS011;62245;48.070;7.874;2024-03-17T09:43:26;7.75;;;3.00;;
73909;SDS011;62245;48.070;7.874;2024-03-17T09:45:52;7.70;;;3.60;;
73909;SDS011;62245;48.070;7.874;2024-03-17T09:48:22;6.55;;;2.83;;
73909;SDS011;62245;48.070;7.874;2024-03-17T09:50:51;29.05;;;12.13;;
73909;SDS011;62245;48.070;7.874;2024-03-17T09:53:18;10.95;;;4.80;;
73909;SDS011;62245;48.070;7.874;2024-03-17T09:55:48;6.85;;;3.08;;
73909;SDS011;62245;48.070;7.874;2024-03-17T09:58:15;8.47;;;3.03;;
73909;SDS011;62245;48.070;7.874;2024-03-17T10:00:42;5.85;;;2.47;;
73909;SDS011;62245;48.070;7.874;2024-03-17T10:03:08;6.07;;;2.22;;
73909;SDS011;62245;48.070;7.874;2024-03-17T10:05:33;6.27;;;2.83;;
73909;SDS011;62245;48.070;7.874;2024-03-17T10:07:58;5.27;;;2.50;;
73909;SDS011;62245;48.070;7.874;2024-03-17T10:10:23;7.93;;;2.97;;
73909;SDS011;62245;48.070;7.874;2024-03-17T10:12:49;8.95;;;2.80;;
73909;SDS011;62245;48.070;7.874;2024-03-17T10:17:44;5.97;;;2.80;;
73909;SDS011;62245;48.070;7.874;2024-03-17T10:20:16;6.43;;;2.58;;
73909;SDS011;62245;48.070;7.874;2024-03-17T10:25:24;6.85;;;3.25;;
73909;SDS011;62245;48.070;7.874;2024-03-17T10:27:51;6.72;;;2.67;;
73909;SDS011;62245;48.070;7.874;2024-03-17T10:30:17;6.50;;;2.80;;
73909;SDS011;62245;48.070;7.874;2024-03-17T10:32:51;6.95;;;2.75;;
73909;SDS011;62245;48.070;7.874;2024-03-17T10:35:37;7.93;;;3.20;;
73909;SDS011;62245;48.070;7.874;2024-03-17T10:38:09;6.57;;;2.67;;
73909;SDS011;62245;48.070;7.874;2024-03-17T10:40:37;7.05;;;3.53;;
73909;SDS011;62245;48.070;7.874;2024-03-17T10:43:04;8.30;;;3.60;;
73909;SDS011;62245;48.070;7.874;2024-03-17T10:45:30;5.60;;;3.03;;
73909;SDS011;62245;48.070;7.874;2024-03-17T10:48:01;7.97;;;3.03;;
73909;SDS011;62245;48.070;7.874;2024-03-17T10:50:29;8.75;;;3.13;;
73909;SDS011;62245;48.070;7.874;2024-03-17T10:52:58;8.52;;;4.03;;
73909;SDS011;62245;48.070;7.874;2024-03-17T10:55:27;7.88;;;3.42;;
73909;SDS011;62245;48.070;7.874;2024-03-17T11:00:25;6.80;;;3.10;;
73909;SDS011;62245;48.070;7.874;2024-03-17T11:02:54;8.45;;;3.20;;
73909;SDS011;62245;48.070;7.874;2024-03-17T11:05:23;7.65;;;3.63;;
73909;SDS011;62245;48.070;7.874;2024-03-17T11:07:51;7.05;;;2.65;;
73909;SDS011;62245;48.070;7.874;2024-03-17T11:10:21;8.90;;;3.13;;
73909;SDS011;62245;48.070;7.874;2024-03-17T11:13:01;6.22;;;3.22;;
73909;SDS011;62245;48.070;7.874;2024-03-17T11:20:33;7.60;;;3.40;;
73909;SDS011;62245;48.070;7.874;2024-03-17T11:23:00;7.13;;;2.97;;
73909;SDS011;62245;48.070;7.874;2024-03-17T11:27:52;9.35;;;4.60;;
73909;SDS011;62245;48.070;7.874;2024-03-17T11:41:41;7.85;;;2.65;;
73909;SDS011;62245;48.070;7.874;2024-03-17T11:47:00;8.75;;;3.25;;
73909;SDS011;62245;48.070;7.874;2024-03-17T11:52:08;11.15;;;3.70;;
73909;SDS011;62245;48.070;7.874;2024-03-17T11:59:36;8.82;;;3.50;;
73909;SDS011;62245;48.070;7.874;2024-03-17T12:02:06;9.13;;;3.60;;
73909;SDS011;62245;48.070;7.874;2024-03-17T12:04:57;9.77;;;4.00;;
73909;SDS011;62245;48.070;7.874;2024-03-17T12:07:24;9.07;;;4.63;;
73909;SDS011;62245;48.070;7.874;2024-03-17T12:09:50;9.35;;;4.72;;
73909;SDS011;62245;48.070;7.874;2024-03-17T12:12:20;7.35;;;3.47;;
73909;SDS011;62245;48.070;7.874;2024-03-17T12:14:47;8.10;;;3.50;;
73909;SDS011;62245;48.070;7.874;2024-03-17T12:17:13;7.85;;;3.10;;
73909;SDS011;62245;48.070;7.874;2024-03-17T12:19:40;6.43;;;2.88;;
73909;SDS011;62245;48.070;7.874;2024-03-17T12:22:09;7.63;;;3.25;;
73909;SDS011;62245;48.070;7.874;2024-03-17T12:24:40;7.85;;;3.05;;
73909;SDS011;62245;48.070;7.874;2024-03-17T12:27:08;7.45;;;3.13;;
73909;SDS011;62245;48.070;7.874;2024-03-17T12:29:42;7.03;;;2.88;;
73909;SDS011;62245;48.070;7.874;2024-03-17T12:34:39;8.10;;;3.38;;
73909;SDS011;62245;48.070;7.874;2024-03-17T12:37:06;9.38;;;4.00;;
73909;SDS011;62245;48.070;7.874;2024-03-17T12:39:33;7.70;;;3.55;;
73909;SDS011;62245;48.070;7.874;2024-03-17T12:44:32;8.15;;;3.13;;
73909;SDS011;62245;48.070;7.874;2024-03-17T12:47:02;7.50;;;3.17;;
73909;SDS011;62245;48.070;7.874;2024-03-17T12:49:29;7.88;;;2.78;;
73909;SDS011;62245;48.070;7.874;2024-03-17T12:51:56;7.10;;;3.05;;
73909;SDS011;62245;48.070;7.874;2024-03-17T12:54:22;8.48;;;3.10;;
73909;SDS011;62245;48.070;7.874;2024-03-17T12:56:50;7.95;;;3.63;;
73909;SDS011;62245;48.070;7.874;2024-03-17T12:59:45;7.40;;;3.55;;
73909;SDS011;62245;48.070;7.874;2024-03-17T13:02:29;9.10;;;3.30;;
73909;SDS011;62245;48.070;7.874;2024-03-17T13:07:32;7.50;;;3.58;;
73909;SDS011;62245;48.070;7.874;2024-03-17T13:09:57;9.17;;;4.27;;
73909;SDS011;62245;48.070;7.874;2024-03-17T13:12:22;13.23;;;5.80;;
73909;SDS011;62245;48.070;7.874;2024-03-17T13:14:48;14.33;;;6.00;;
73909;SDS011;62245;48.070;7.874;2024-03-17T13:17:14;9.60;;;4.10;;
73909;SDS011;62245;48.070;7.874;2024-03-17T13:19:46;9.55;;;3.55;;
73909;SDS011;62245;48.070;7.874;2024-03-17T13:22:12;9.43;;;3.40;;
73909;SDS011;62245;48.070;7.874;2024-03-17T13:24:38;11.05;;;3.33;;
73909;SDS011;62245;48.070;7.874;2024-03-17T13:27:04;9.13;;;3.60;;
73909;SDS011;62245;48.070;7.874;2024-03-17T13:29:31;9.15;;;3.70;;
73909;SDS011;62245;48.070;7.874;2024-03-17T13:31:58;9.18;;;3.53;;
73909;SDS011;62245;48.070;7.874;2024-03-17T13:34:23;8.93;;;3.90;;
73909;SDS011;62245;48.070;7.874;2024-03-17T13:36:52;8.70;;;3.33;;
73909;SDS011;62245;48.070;7.874;2024-03-17T13:39:18;8.30;;;3.88;;
73909;SDS011;62245;48.070;7.874;2024-03-17T13:41:45;22.63;;;11.45;;
73909;SDS011;62245;48.070;7.874;2024-03-17T13:44:11;12.00;;;6.82;;
73909;SDS011;62245;48.070;7.874;2024-03-17T13:46:37;6.22;;;3.47;;
73909;SDS011;62245;48.070;7.874;2024-03-17T13:49:06;9.37;;;3.67;;
73909;SDS011;62245;48.070;7.874;2024-03-17T13:51:33;5.65;;;2.78;;
73909;SDS011;62245;48.070;7.874;2024-03-17T13:53:58;11.50;;;3.97;;
73909;SDS011;62245;48.070;7.874;2024-03-17T13:56:24;12.07;;;4.83;;
73909;SDS011;62245;48.070;7.874;2024-03-17T13:58:49;12.63;;;5.00;;
73909;SDS011;62245;48.070;7.874;2024-03-17T14:01:16;12.18;;;4.75;;
73909;SDS011;62245;48.070;7.874;2024-03-17T14:03:41;10.73;;;3.83;;
73909;SDS011;62245;48.070;7.874;2024-03-17T14:06:08;9.48;;;3.60;;
73909;SDS011;62245;48.070;7.874;2024-03-17T14:08:33;8.07;;;3.50;;
73909;SDS011;62245;48.070;7.874;2024-03-17T14:10:59;9.18;;;3.20;;
73909;SDS011;62245;48.070;7.874;2024-03-17T14:13:25;9.30;;;3.25;;
73909;SDS011;62245;48.070;7.874;2024-03-17T14:15:51;7.82;;;3.08;;
73909;SDS011;62245;48.070;7.874;2024-03-17T14:18:16;8.73;;;3.00;;
73909;SDS011;62245;48.070;7.874;2024-03-17T14:20:41;7.43;;;2.90;;
73909;SDS011;62245;48.070;7.874;2024-03-17T14:23:07;6.70;;;2.28;;
73909;SDS011;62245;48.070;7.874;2024-03-17T14:25:32;7.67;;;2.67;;
73909;SDS011;62245;48.070;7.874;2024-03-17T14:27:57;10.93;;;5.20;;
73909;SDS011;62245;48.070;7.874;2024-03-17T14:30:23;11.23;;;5.50;;
73909;SDS011;62245;48.070;7.874;2024-03-17T14:32:48;8.55;;;4.28;;
73909;SDS011;62245;48.070;7.874;2024-03-17T14:35:15;8.10;;;3.05;;
73909;SDS011;62245;48.070;7.874;2024-03-17T14:37:42;6.55;;;2.60;;
73909;SDS011;62245;48.070;7.874;2024-03-17T14:40:12;12.23;;;3.20;;
73909;SDS011;62245;48.070;7.874;2024-03-17T14:42:56;9.10;;;2.78;;
73909;SDS011;62245;48.070;7.874;2024-03-17T14:45:21;7.82;;;2.60;;
73909;SDS011;62245;48.070;7.874;2024-03-17T14:47:50;9.82;;;2.60;;
73909;SDS011;62245;48.070;7.874;2024-03-17T14:50:15;6.87;;;2.50;;
73909;SDS011;62245;48.070;7.874;2024-03-17T14:52:44;7.03;;;1.92;;
73909;SDS011;62245;48.070;7.874;2024-03-17T14:55:10;6.35;;;2.10;;
73909;SDS011;62245;48.070;7.874;2024-03-17T14:57:36;6.15;;;2.10;;
73909;SDS011;62245;48.070;7.874;2024-03-17T15:00:11;5.22;;;1.80;;
73909;SDS011;62245;48.070;7.874;2024-03-17T15:02:43;7.10;;;2.20;;
73909;SDS011;62245;48.070;7.874;2024-03-17T15:05:10;8.50;;;2.30;;
73909;SDS011;62245;48.070;7.874;2024-03-17T15:07:36;7.25;;;3.13;;
73909;SDS011;62245;48.070;7.874;2024-03-17T15:10:02;9.70;;;3.67;;
73909;SDS011;62245;48.070;7.874;2024-03-17T15:12:28;8.38;;;3.17;;
73909;SDS011;62245;48.070;7.874;2024-03-17T15:14:54;8.00;;;3.28;;
73909;SDS011;62245;48.070;7.874;2024-03-17T15:17:20;9.15;;;3.47;;
73909;SDS011;62245;48.070;7.874;2024-03-17T15:19:48;7.30;;;3.10;;
73909;SDS011;62245;48.070;7.874;2024-03-17T15:22:14;10.43;;;3.67;;
73909;SDS011;62245;48.070;7.874;2024-03-17T15:24:39;7.82;;;3.50;;
73909;SDS011;62245;48.070;7.874;2024-03-17T15:27:04;8.40;;;3.30;;
73909;SDS011;62245;48.070;7.874;2024-03-17T15:29:30;9.05;;;3.53;;
73909;SDS011;62245;48.070;7.874;2024-03-17T15:31:56;7.43;;;3.03;;
73909;SDS011;62245;48.070;7.874;2024-03-17T15:34:24;8.13;;;3.53;;